Check out our new PWSWeather beta!
PWSweather.com
Personal Weather Stations
Station Observations

TäktomHankoFI 10900

Lat: 59.8483083, Lon: 23.085378600000013

Elevation: 20

Station Type: Davis Vantage Pro 2 plus and UV and Solar sensors

https://www.hangonlentokerho.fi/weather/weatherEFHN/weathereng.html

Latest ConditionsUpdated 6:02:01 AM GMT+02:02 Friday, Feb 21, 2020
Currently Today's Max Today's Min Today's Average
Temperature 36.7°F2.6°C 38.9°F3.8°C 36.7°F2.6°C 38.2°F3.4°C
Dew Point 34.9°F1.6°C 35.2°F1.8°C 34.3°F1.3°C 34.8°F1.6°C
Winds 10.4 mph SSW16.7 kmh SSW 13.8 mph -22.2 kmh - - 8.6 mph 13.8 kmh
Wind Gusts 19.6 mph31.5 kmh 26.5 mph42.6 kmh - -
Humidity 93% 93% 84% 87%
Pressure 29.60 in1002.4 mb 29.78 in1008.5 mb 29.60 in1002.4 mb -
Precipitation - 0.03 in0.8 mm - -
Hour Temp Dew Point Humidity Winds Wind Gusts Pressure Precip Precip Rate Daily Precip Total
06:02 AM 36.7°F2.6°C 34.9°F1.6°C 93% 10.4 mph SSW16.7 kmh SSW 19.6 mph31.5 kmh 29.60 in1002.4 mb - 0.03 in0.8 mm 0.03 in0.8 mm
06:01 AM 36.8°F2.7°C 34.9°F1.6°C 93% 8.1 mph SSW13.0 kmh SSW 13.8 mph22.2 kmh 29.61 in1002.7 mb - 0.03 in0.8 mm 0.03 in0.8 mm
06:00 AM 36.7°F2.6°C 34.9°F1.6°C 93% 6.9 mph SW11.1 kmh SW 12.7 mph20.4 kmh 29.61 in1002.7 mb - 0.03 in0.8 mm 0.03 in0.8 mm
05:59 AM 36.8°F2.7°C 35.0°F1.7°C 93% 9.2 mph SSW14.8 kmh SSW 12.7 mph20.4 kmh 29.61 in1002.7 mb - 0.03 in0.8 mm 0.03 in0.8 mm
05:58 AM 36.8°F2.7°C 35.0°F1.7°C 93% 11.5 mph SSW18.5 kmh SSW 19.6 mph31.5 kmh 29.61 in1002.7 mb - 0.03 in0.8 mm 0.03 in0.8 mm
05:57 AM 36.8°F2.7°C 35.0°F1.7°C 93% 8.1 mph S13.0 kmh S 19.6 mph31.5 kmh 29.61 in1002.7 mb - 0.03 in0.8 mm 0.03 in0.8 mm
05:56 AM 36.8°F2.7°C 35.0°F1.7°C 93% 8.1 mph S13.0 kmh S 13.8 mph22.2 kmh 29.61 in1002.7 mb - 0.03 in0.8 mm 0.03 in0.8 mm
05:55 AM 36.8°F2.7°C 35.0°F1.7°C 93% 11.5 mph SSW18.5 kmh SSW 19.6 mph31.5 kmh 29.61 in1002.7 mb - 0.03 in0.8 mm 0.03 in0.8 mm
05:54 AM 36.8°F2.7°C 35.0°F1.7°C 93% 10.4 mph SSW16.7 kmh SSW 19.6 mph31.5 kmh 29.61 in1002.7 mb - 0.03 in0.8 mm 0.03 in0.8 mm
05:53 AM 36.8°F2.7°C 35.0°F1.7°C 93% 10.4 mph S16.7 kmh S 19.6 mph31.5 kmh 29.61 in1002.7 mb - 0.03 in0.8 mm 0.03 in0.8 mm
05:52 AM 36.8°F2.7°C 35.0°F1.7°C 93% 9.2 mph SSW14.8 kmh SSW 21.9 mph35.2 kmh 29.61 in1002.7 mb - 0.02 in0.5 mm 0.02 in0.5 mm
05:51 AM 36.8°F2.7°C 35.0°F1.7°C 93% 10.4 mph SSW16.7 kmh SSW 11.5 mph18.5 kmh 29.61 in1002.7 mb - 0.02 in0.5 mm 0.02 in0.5 mm
05:50 AM 36.9°F2.7°C 35.0°F1.7°C 93% 11.5 mph SSW18.5 kmh SSW 21.9 mph35.2 kmh 29.61 in1002.7 mb - 0.02 in0.5 mm 0.02 in0.5 mm
05:49 AM 36.9°F2.7°C 35.1°F1.7°C 93% 9.2 mph SSW14.8 kmh SSW 13.8 mph22.2 kmh 29.61 in1002.7 mb - 0.02 in0.5 mm 0.02 in0.5 mm
05:48 AM 36.9°F2.7°C 35.1°F1.7°C 93% 8.1 mph SW13.0 kmh SW 15.0 mph24.1 kmh 29.61 in1002.7 mb - 0.02 in0.5 mm 0.02 in0.5 mm
05:47 AM 36.9°F2.7°C 35.1°F1.7°C 93% 6.9 mph SW11.1 kmh SW 13.8 mph22.2 kmh 29.61 in1002.7 mb - 0.02 in0.5 mm 0.02 in0.5 mm
05:46 AM 36.9°F2.7°C 35.1°F1.7°C 93% 8.1 mph SSW13.0 kmh SSW 15.0 mph24.1 kmh 29.61 in1002.7 mb - 0.02 in0.5 mm 0.02 in0.5 mm
05:45 AM 36.9°F2.7°C 35.1°F1.7°C 93% 6.9 mph SW11.1 kmh SW 11.5 mph18.5 kmh 29.61 in1002.7 mb - 0.02 in0.5 mm 0.02 in0.5 mm
05:44 AM 36.9°F2.7°C 35.1°F1.7°C 93% 8.1 mph SSW13.0 kmh SSW 11.5 mph18.5 kmh 29.61 in1002.7 mb - 0.02 in0.5 mm 0.02 in0.5 mm
05:43 AM 37.0°F2.8°C 35.2°F1.8°C 93% 9.2 mph SSW14.8 kmh SSW 13.8 mph22.2 kmh 29.61 in1002.7 mb - 0.02 in0.5 mm 0.02 in0.5 mm
05:42 AM 37.0°F2.8°C 35.2°F1.8°C 93% 9.2 mph SW14.8 kmh SW 19.6 mph31.5 kmh 29.61 in1002.7 mb - 0.02 in0.5 mm 0.02 in0.5 mm
05:41 AM 37.0°F2.8°C 35.2°F1.8°C 93% 9.2 mph S14.8 kmh S 12.7 mph20.4 kmh 29.61 in1002.7 mb - 0.02 in0.5 mm 0.02 in0.5 mm
05:40 AM 37.0°F2.8°C 35.2°F1.8°C 93% 12.7 mph S20.4 kmh S 16.1 mph25.9 kmh 29.61 in1002.7 mb - 0.02 in0.5 mm 0.02 in0.5 mm
05:39 AM 37.0°F2.8°C 35.2°F1.8°C 93% 8.1 mph SSW13.0 kmh SSW 23.0 mph37.0 kmh 29.61 in1002.7 mb - 0.02 in0.5 mm 0.02 in0.5 mm
05:38 AM 37.0°F2.8°C 35.2°F1.8°C 93% 9.2 mph SW14.8 kmh SW 19.6 mph31.5 kmh 29.61 in1002.7 mb - 0.02 in0.5 mm 0.02 in0.5 mm
05:37 AM 37.0°F2.8°C 35.2°F1.8°C 93% 6.9 mph SW11.1 kmh SW 19.6 mph31.5 kmh 29.61 in1002.7 mb - 0.02 in0.5 mm 0.02 in0.5 mm
05:36 AM 37.0°F2.8°C 35.2°F1.8°C 93% 9.2 mph SSW14.8 kmh SSW 9.2 mph14.8 kmh 29.61 in1002.7 mb - 0.02 in0.5 mm 0.02 in0.5 mm
05:35 AM 37.0°F2.8°C 35.2°F1.8°C 93% 10.4 mph S16.7 kmh S 23.0 mph37.0 kmh 29.61 in1002.7 mb - 0.02 in0.5 mm 0.02 in0.5 mm
05:34 AM 37.0°F2.8°C 34.9°F1.6°C 92% 11.5 mph SW18.5 kmh SW 15.0 mph24.1 kmh 29.61 in1002.7 mb - 0.02 in0.5 mm 0.02 in0.5 mm
05:33 AM 37.1°F2.8°C 35.0°F1.7°C 92% 11.5 mph SSW18.5 kmh SSW 20.7 mph33.3 kmh 29.61 in1002.7 mb - 0.02 in0.5 mm 0.02 in0.5 mm
05:32 AM 37.1°F2.8°C 35.0°F1.7°C 92% 9.2 mph SSW14.8 kmh SSW 13.8 mph22.2 kmh 29.61 in1002.7 mb - 0.01 in0.3 mm 0.01 in0.3 mm
05:31 AM 37.1°F2.8°C 35.0°F1.7°C 92% 10.4 mph SW16.7 kmh SW 18.4 mph29.6 kmh 29.61 in1002.7 mb - 0.01 in0.3 mm 0.01 in0.3 mm
05:30 AM 37.1°F2.8°C 35.0°F1.7°C 92% 9.2 mph SSW14.8 kmh SSW 16.1 mph25.9 kmh 29.61 in1002.7 mb - 0.01 in0.3 mm 0.01 in0.3 mm
05:29 AM 37.2°F2.9°C 35.0°F1.7°C 92% 11.5 mph S18.5 kmh S 12.7 mph20.4 kmh 29.61 in1002.7 mb - 0.01 in0.3 mm 0.01 in0.3 mm
05:28 AM 37.2°F2.9°C 35.1°F1.7°C 92% 11.5 mph SSW18.5 kmh SSW 19.6 mph31.5 kmh 29.61 in1002.7 mb - 0.01 in0.3 mm 0.01 in0.3 mm
05:27 AM 37.2°F2.9°C 35.1°F1.7°C 92% 8.1 mph SSW13.0 kmh SSW 19.6 mph31.5 kmh 29.61 in1002.7 mb - 0.01 in0.3 mm 0.01 in0.3 mm
05:26 AM 37.2°F2.9°C 35.1°F1.7°C 92% 6.9 mph SSW11.1 kmh SSW 9.2 mph14.8 kmh 29.61 in1002.7 mb - 0.01 in0.3 mm 0.01 in0.3 mm
05:25 AM 37.2°F2.9°C 35.1°F1.7°C 92% 9.2 mph SW14.8 kmh SW 11.5 mph18.5 kmh 29.61 in1002.7 mb - 0.01 in0.3 mm 0.01 in0.3 mm
05:24 AM 37.2°F2.9°C 35.1°F1.7°C 92% 11.5 mph SW18.5 kmh SW 17.3 mph27.8 kmh 29.61 in1002.7 mb - 0.01 in0.3 mm 0.01 in0.3 mm
05:23 AM 37.2°F2.9°C 35.1°F1.7°C 92% 9.2 mph SSW14.8 kmh SSW 19.6 mph31.5 kmh 29.61 in1002.7 mb - 0.01 in0.3 mm 0.01 in0.3 mm
05:22 AM 37.2°F2.9°C 35.1°F1.7°C 92% 3.5 mph SSE5.6 kmh SSE 13.8 mph22.2 kmh 29.61 in1002.7 mb - 0.01 in0.3 mm 0.01 in0.3 mm
05:21 AM 37.2°F2.9°C 35.1°F1.7°C 92% 6.9 mph S11.1 kmh S 10.4 mph16.7 kmh 29.61 in1002.7 mb - 0.01 in0.3 mm 0.01 in0.3 mm
05:20 AM 37.2°F2.9°C 35.1°F1.7°C 92% 9.2 mph SSW14.8 kmh SSW 12.7 mph20.4 kmh 29.62 in1003.0 mb - 0.01 in0.3 mm 0.01 in0.3 mm
05:19 AM 37.2°F2.9°C 35.1°F1.7°C 92% 10.4 mph SSW16.7 kmh SSW 17.3 mph27.8 kmh 29.61 in1002.7 mb - 0.01 in0.3 mm 0.01 in0.3 mm
05:18 AM 37.2°F2.9°C 35.1°F1.7°C 92% 8.1 mph SW13.0 kmh SW 15.0 mph24.1 kmh 29.62 in1003.0 mb - 0.01 in0.3 mm 0.01 in0.3 mm
05:17 AM 37.2°F2.9°C 35.1°F1.7°C 92% 6.9 mph SW11.1 kmh SW 12.7 mph20.4 kmh 29.61 in1002.7 mb - 0.01 in0.3 mm 0.01 in0.3 mm
05:16 AM 37.3°F2.9°C 35.2°F1.8°C 92% 6.9 mph SSW11.1 kmh SSW 11.5 mph18.5 kmh 29.62 in1003.0 mb - 0.01 in0.3 mm 0.01 in0.3 mm
05:15 AM 37.3°F2.9°C 35.2°F1.8°C 92% 6.9 mph SW11.1 kmh SW 10.4 mph16.7 kmh 29.62 in1003.0 mb - 0.01 in0.3 mm 0.01 in0.3 mm
05:14 AM 37.3°F2.9°C 35.2°F1.8°C 92% 6.9 mph SW11.1 kmh SW 13.8 mph22.2 kmh 29.62 in1003.0 mb - 0.01 in0.3 mm 0.01 in0.3 mm
05:13 AM 37.3°F2.9°C 35.2°F1.8°C 92% 6.9 mph SW11.1 kmh SW 12.7 mph20.4 kmh 29.62 in1003.0 mb - 0.01 in0.3 mm 0.01 in0.3 mm
05:12 AM 37.3°F2.9°C 34.9°F1.6°C 91% 10.4 mph SSW16.7 kmh SSW 13.8 mph22.2 kmh 29.62 in1003.0 mb - 0.01 in0.3 mm 0.01 in0.3 mm
05:11 AM 37.3°F2.9°C 35.2°F1.8°C 92% 5.8 mph SW9.3 kmh SW 21.9 mph35.2 kmh 29.62 in1003.0 mb - 0.01 in0.3 mm 0.01 in0.3 mm
05:10 AM 37.4°F3.0°C 35.0°F1.7°C 91% 4.6 mph SSW7.4 kmh SSW 5.8 mph9.3 kmh 29.62 in1003.0 mb - 0.01 in0.3 mm 0.01 in0.3 mm
05:09 AM 37.3°F2.9°C 35.0°F1.7°C 91% 12.7 mph SSW20.4 kmh SSW 15.0 mph24.1 kmh 29.62 in1003.0 mb - 0.01 in0.3 mm 0.01 in0.3 mm
05:08 AM 37.4°F3.0°C 35.0°F1.7°C 91% 10.4 mph SW16.7 kmh SW 20.7 mph33.3 kmh 29.62 in1003.0 mb - 0.01 in0.3 mm 0.01 in0.3 mm
05:07 AM 37.4°F3.0°C 35.0°F1.7°C 91% 10.4 mph SW16.7 kmh SW 11.5 mph18.5 kmh 29.62 in1003.0 mb - 0.00 in0.0 mm 0.00 in0.0 mm
05:06 AM 37.4°F3.0°C 35.0°F1.7°C 91% 11.5 mph S18.5 kmh S 15.0 mph24.1 kmh 29.62 in1003.0 mb - 0.00 in0.0 mm 0.00 in0.0 mm
05:05 AM 37.4°F3.0°C 35.0°F1.7°C 91% 13.8 mph SSW22.2 kmh SSW 24.2 mph38.9 kmh 29.62 in1003.0 mb - 0.00 in0.0 mm 0.00 in0.0 mm
05:04 AM 37.4°F3.0°C 35.0°F1.7°C 91% 11.5 mph SW18.5 kmh SW 20.7 mph33.3 kmh 29.62 in1003.0 mb - 0.00 in0.0 mm 0.00 in0.0 mm
05:03 AM 37.4°F3.0°C 35.0°F1.7°C 91% 6.9 mph S11.1 kmh S 19.6 mph31.5 kmh 29.62 in1003.0 mb - 0.00 in0.0 mm 0.00 in0.0 mm
05:02 AM 37.5°F3.1°C 35.1°F1.7°C 91% 6.9 mph SSW11.1 kmh SSW 12.7 mph20.4 kmh 29.62 in1003.0 mb - 0.00 in0.0 mm 0.00 in0.0 mm
05:01 AM 37.5°F3.1°C 35.1°F1.7°C 91% 10.4 mph SW16.7 kmh SW 16.1 mph25.9 kmh 29.62 in1003.0 mb - 0.00 in0.0 mm 0.00 in0.0 mm
05:00 AM 37.5°F3.1°C 35.1°F1.7°C 91% 8.1 mph SSW13.0 kmh SSW 15.0 mph24.1 kmh 29.62 in1003.0 mb - 0.00 in0.0 mm 0.00 in0.0 mm
04:59 AM 37.5°F3.1°C 35.1°F1.7°C 91% 3.5 mph S5.6 kmh S 17.3 mph27.8 kmh 29.62 in1003.0 mb - 0.00 in0.0 mm 0.00 in0.0 mm
04:58 AM 37.5°F3.1°C 35.1°F1.7°C 91% 8.1 mph S13.0 kmh S 12.7 mph20.4 kmh 29.63 in1003.4 mb - 0.00 in0.0 mm 0.00 in0.0 mm
04:57 AM 37.5°F3.1°C 35.1°F1.7°C 91% 4.6 mph S7.4 kmh S 10.4 mph16.7 kmh 29.62 in1003.0 mb - 0.00 in0.0 mm 0.00 in0.0 mm
04:56 AM 37.5°F3.1°C 35.1°F1.7°C 91% 5.8 mph SW9.3 kmh SW 8.1 mph13.0 kmh 29.62 in1003.0 mb - 0.00 in0.0 mm 0.00 in0.0 mm
04:55 AM 37.5°F3.1°C 35.2°F1.8°C 91% 6.9 mph SW11.1 kmh SW 10.4 mph16.7 kmh 29.63 in1003.4 mb - 0.00 in0.0 mm 0.00 in0.0 mm
04:54 AM 37.6°F3.1°C 35.2°F1.8°C 91% 8.1 mph SSW13.0 kmh SSW 15.0 mph24.1 kmh 29.63 in1003.4 mb - 0.00 in0.0 mm 0.00 in0.0 mm
04:53 AM 37.6°F3.1°C 35.2°F1.8°C 91% 8.1 mph SSW13.0 kmh SSW 11.5 mph18.5 kmh 29.63 in1003.4 mb - 0.00 in0.0 mm 0.00 in0.0 mm
04:52 AM 37.6°F3.1°C 34.9°F1.6°C 90% 6.9 mph SSW11.1 kmh SSW 12.7 mph20.4 kmh 29.63 in1003.4 mb - 0.00 in0.0 mm 0.00 in0.0 mm
04:51 AM 37.6°F3.1°C 34.9°F1.6°C 90% 8.1 mph SW13.0 kmh SW 10.4 mph16.7 kmh 29.63 in1003.4 mb - 0.00 in0.0 mm 0.00 in0.0 mm
04:50 AM 37.6°F3.1°C 34.9°F1.6°C 90% 9.2 mph SSW14.8 kmh SSW 19.6 mph31.5 kmh 29.63 in1003.4 mb - 0.00 in0.0 mm 0.00 in0.0 mm
04:49 AM 37.7°F3.2°C 35.0°F1.7°C 90% 9.2 mph SSW14.8 kmh SSW 13.8 mph22.2 kmh 29.63 in1003.4 mb - 0.00 in0.0 mm 0.00 in0.0 mm
04:48 AM 37.7°F3.2°C 35.0°F1.7°C 90% 10.4 mph SSW16.7 kmh SSW 17.3 mph27.8 kmh 29.63 in1003.4 mb - 0.00 in0.0 mm 0.00 in0.0 mm
04:47 AM 37.7°F3.2°C 35.0°F1.7°C 90% 10.4 mph SW16.7 kmh SW 17.3 mph27.8 kmh 29.63 in1003.4 mb - 0.00 in0.0 mm 0.00 in0.0 mm
04:46 AM 37.6°F3.1°C 35.0°F1.7°C 90% 8.1 mph S13.0 kmh S 21.9 mph35.2 kmh 29.63 in1003.4 mb - 0.00 in0.0 mm 0.00 in0.0 mm
04:45 AM 37.7°F3.2°C 35.0°F1.7°C 90% 9.2 mph SW14.8 kmh SW 11.5 mph18.5 kmh 29.63 in1003.4 mb - 0.00 in0.0 mm 0.00 in0.0 mm
04:44 AM 37.7°F3.2°C 35.0°F1.7°C 90% 8.1 mph SW13.0 kmh SW 17.3 mph27.8 kmh 29.63 in1003.4 mb - 0.00 in0.0 mm 0.00 in0.0 mm
04:43 AM 37.7°F3.2°C 35.0°F1.7°C 90% 8.1 mph SSW13.0 kmh SSW 15.0 mph24.1 kmh 29.63 in1003.4 mb - 0.00 in0.0 mm 0.00 in0.0 mm
04:42 AM 37.7°F3.2°C 35.0°F1.7°C 90% 10.4 mph S16.7 kmh S 17.3 mph27.8 kmh 29.63 in1003.4 mb - 0.00 in0.0 mm 0.00 in0.0 mm
04:41 AM 37.7°F3.2°C 35.0°F1.7°C 90% 8.1 mph SSW13.0 kmh SSW 17.3 mph27.8 kmh 29.63 in1003.4 mb - 0.00 in0.0 mm 0.00 in0.0 mm
04:40 AM 37.7°F3.2°C 35.0°F1.7°C 90% 8.1 mph S13.0 kmh S 12.7 mph20.4 kmh 29.64 in1003.7 mb - 0.00 in0.0 mm 0.00 in0.0 mm
04:39 AM 37.7°F3.2°C 35.0°F1.7°C 90% 9.2 mph SSW14.8 kmh SSW 12.7 mph20.4 kmh 29.64 in1003.7 mb - 0.00 in0.0 mm 0.00 in0.0 mm
04:38 AM 37.7°F3.2°C 35.0°F1.7°C 90% 11.5 mph SSW18.5 kmh SSW 17.3 mph27.8 kmh 29.64 in1003.7 mb - 0.00 in0.0 mm 0.00 in0.0 mm
04:37 AM 37.7°F3.2°C 35.0°F1.7°C 90% 8.1 mph SW13.0 kmh SW 23.0 mph37.0 kmh 29.64 in1003.7 mb - 0.00 in0.0 mm 0.00 in0.0 mm
04:36 AM 37.7°F3.2°C 35.0°F1.7°C 90% 8.1 mph SW13.0 kmh SW 11.5 mph18.5 kmh 29.64 in1003.7 mb - 0.00 in0.0 mm 0.00 in0.0 mm
04:35 AM 37.7°F3.2°C 35.0°F1.7°C 90% 9.2 mph SW14.8 kmh SW 11.5 mph18.5 kmh 29.64 in1003.7 mb - 0.00 in0.0 mm 0.00 in0.0 mm
04:34 AM 37.7°F3.2°C 35.1°F1.7°C 90% 9.2 mph SW14.8 kmh SW 19.6 mph31.5 kmh 29.64 in1003.7 mb - 0.00 in0.0 mm 0.00 in0.0 mm
04:33 AM 37.7°F3.2°C 35.1°F1.7°C 90% 11.5 mph SSW18.5 kmh SSW 19.6 mph31.5 kmh 29.64 in1003.7 mb - 0.00 in0.0 mm 0.00 in0.0 mm
04:32 AM 37.8°F3.2°C 35.1°F1.7°C 90% 9.2 mph SSW14.8 kmh SSW 15.0 mph24.1 kmh 29.64 in1003.7 mb - 0.00 in0.0 mm 0.00 in0.0 mm
04:31 AM 37.8°F3.2°C 34.8°F1.6°C 89% 10.4 mph SW16.7 kmh SW 12.7 mph20.4 kmh 29.64 in1003.7 mb - 0.00 in0.0 mm 0.00 in0.0 mm
04:30 AM 37.8°F3.2°C 35.1°F1.7°C 90% 11.5 mph SSW18.5 kmh SSW 23.0 mph37.0 kmh 29.64 in1003.7 mb - 0.00 in0.0 mm 0.00 in0.0 mm
04:29 AM 37.8°F3.2°C 35.1°F1.7°C 90% 8.1 mph SW13.0 kmh SW 13.8 mph22.2 kmh 29.64 in1003.7 mb - 0.00 in0.0 mm 0.00 in0.0 mm
04:28 AM 37.8°F3.2°C 34.9°F1.6°C 89% 10.4 mph SSW16.7 kmh SSW 11.5 mph18.5 kmh 29.64 in1003.7 mb - 0.00 in0.0 mm 0.00 in0.0 mm
04:27 AM 37.8°F3.2°C 34.8°F1.6°C 89% 10.4 mph SSW16.7 kmh SSW 17.3 mph27.8 kmh 29.64 in1003.7 mb - 0.00 in0.0 mm 0.00 in0.0 mm
04:26 AM 37.8°F3.2°C 34.8°F1.6°C 89% 10.4 mph SSW16.7 kmh SSW 20.7 mph33.3 kmh 29.64 in1003.7 mb - 0.00 in0.0 mm 0.00 in0.0 mm
04:25 AM 37.9°F3.3°C 34.9°F1.6°C 89% 9.2 mph SSW14.8 kmh SSW 19.6 mph31.5 kmh 29.64 in1003.7 mb - 0.00 in0.0 mm 0.00 in0.0 mm
04:24 AM 37.9°F3.3°C 35.0°F1.7°C 89% 8.1 mph SW13.0 kmh SW 20.7 mph33.3 kmh 29.64 in1003.7 mb - 0.00 in0.0 mm 0.00 in0.0 mm
04:23 AM 37.9°F3.3°C 35.0°F1.7°C 89% 6.9 mph SW11.1 kmh SW 19.6 mph31.5 kmh 29.64 in1003.7 mb - 0.00 in0.0 mm 0.00 in0.0 mm
04:22 AM 37.9°F3.3°C 35.0°F1.7°C 89% 6.9 mph SSW11.1 kmh SSW 11.5 mph18.5 kmh 29.64 in1003.7 mb - 0.00 in0.0 mm 0.00 in0.0 mm
04:21 AM 37.9°F3.3°C 35.0°F1.7°C 89% 10.4 mph SSW16.7 kmh SSW 18.4 mph29.6 kmh 29.64 in1003.7 mb - 0.00 in0.0 mm 0.00 in0.0 mm
04:20 AM 38.0°F3.3°C 35.0°F1.7°C 89% 5.8 mph SSW9.3 kmh SSW 16.1 mph25.9 kmh 29.64 in1003.7 mb - 0.00 in0.0 mm 0.00 in0.0 mm
04:19 AM 38.0°F3.3°C 35.0°F1.7°C 89% 8.1 mph S13.0 kmh S 9.2 mph14.8 kmh 29.64 in1003.7 mb - 0.00 in0.0 mm 0.00 in0.0 mm
04:18 AM 38.1°F3.4°C 35.1°F1.7°C 89% 9.2 mph SSW14.8 kmh SSW 17.3 mph27.8 kmh 29.64 in1003.7 mb - 0.00 in0.0 mm 0.00 in0.0 mm
04:17 AM 38.1°F3.4°C 35.1°F1.7°C 89% 6.9 mph SW11.1 kmh SW 17.3 mph27.8 kmh 29.64 in1003.7 mb - 0.00 in0.0 mm 0.00 in0.0 mm
04:16 AM 38.1°F3.4°C 34.9°F1.6°C 88% 10.4 mph SW16.7 kmh SW 12.7 mph20.4 kmh 29.64 in1003.7 mb - 0.00 in0.0 mm 0.00 in0.0 mm
04:15 AM 38.2°F3.4°C 35.2°F1.8°C 89% 10.4 mph SSW16.7 kmh SSW 19.6 mph31.5 kmh 29.64 in1003.7 mb - 0.00 in0.0 mm 0.00 in0.0 mm
04:14 AM 38.2°F3.4°C 35.0°F1.7°C 88% 9.2 mph SSW14.8 kmh SSW 20.7 mph33.3 kmh 29.65 in1004.1 mb - 0.00 in0.0 mm 0.00 in0.0 mm
04:13 AM 38.2°F3.4°C 35.0°F1.7°C 88% 9.2 mph SW14.8 kmh SW 11.5 mph18.5 kmh 29.65 in1004.1 mb - 0.00 in0.0 mm 0.00 in0.0 mm
04:12 AM 38.2°F3.4°C 35.0°F1.7°C 88% 10.4 mph SSW16.7 kmh SSW 16.1 mph25.9 kmh 29.65 in1004.1 mb - 0.00 in0.0 mm 0.00 in0.0 mm
04:11 AM 38.3°F3.5°C 35.1°F1.7°C 88% 5.8 mph SSW9.3 kmh SSW 19.6 mph31.5 kmh 29.65 in1004.1 mb - 0.00 in0.0 mm 0.00 in0.0 mm
04:10 AM 38.3°F3.5°C 35.1°F1.7°C 88% 6.9 mph SW11.1 kmh SW 9.2 mph14.8 kmh 29.65 in1004.1 mb - 0.00 in0.0 mm 0.00 in0.0 mm
04:09 AM 38.3°F3.5°C 35.1°F1.7°C 88% 6.9 mph SW11.1 kmh SW 11.5 mph18.5 kmh 29.65 in1004.1 mb - 0.00 in0.0 mm 0.00 in0.0 mm
04:08 AM 38.3°F3.5°C 34.8°F1.6°C 87% 10.4 mph SW16.7 kmh SW 11.5 mph18.5 kmh 29.65 in1004.1 mb - 0.00 in0.0 mm 0.00 in0.0 mm
04:07 AM 38.4°F3.6°C 35.2°F1.8°C 88% 10.4 mph SSW16.7 kmh SSW 26.5 mph42.6 kmh 29.65 in1004.1 mb - 0.00 in0.0 mm 0.00 in0.0 mm
04:06 AM 38.4°F3.6°C 34.9°F1.6°C 87% 10.4 mph SW16.7 kmh SW 19.6 mph31.5 kmh 29.65 in1004.1 mb - 0.00 in0.0 mm 0.00 in0.0 mm
04:05 AM 38.4°F3.6°C 34.9°F1.6°C 87% 9.2 mph SSW14.8 kmh SSW 18.4 mph29.6 kmh 29.65 in1004.1 mb - 0.00 in0.0 mm 0.00 in0.0 mm
04:04 AM 38.4°F3.6°C 34.9°F1.6°C 87% 11.5 mph SW18.5 kmh SW 18.4 mph29.6 kmh 29.65 in1004.1 mb - 0.00 in0.0 mm 0.00 in0.0 mm
04:03 AM 38.5°F3.6°C 34.9°F1.6°C 87% 9.2 mph SSW14.8 kmh SSW 18.4 mph29.6 kmh 29.65 in1004.1 mb - 0.00 in0.0 mm 0.00 in0.0 mm
04:02 AM 38.5°F3.6°C 35.0°F1.7°C 87% 6.9 mph SSW11.1 kmh SSW 13.8 mph22.2 kmh 29.65 in1004.1 mb - 0.00 in0.0 mm 0.00 in0.0 mm
04:01 AM 38.5°F3.6°C 35.0°F1.7°C 87% 9.2 mph SSW14.8 kmh SSW 12.7 mph20.4 kmh 29.65 in1004.1 mb - 0.00 in0.0 mm 0.00 in0.0 mm
04:00 AM 38.5°F3.6°C 35.0°F1.7°C 87% 10.4 mph SSW16.7 kmh SSW 21.9 mph35.2 kmh 29.65 in1004.1 mb - 0.00 in0.0 mm 0.00 in0.0 mm
03:59 AM 38.5°F3.6°C 35.0°F1.7°C 87% 9.2 mph SW14.8 kmh SW 16.1 mph25.9 kmh 29.65 in1004.1 mb - 0.00 in0.0 mm 0.00 in0.0 mm
03:58 AM 38.6°F3.7°C 35.1°F1.7°C 87% 10.4 mph SSW16.7 kmh SSW 19.6 mph31.5 kmh 29.65 in1004.1 mb - 0.00 in0.0 mm 0.00 in0.0 mm
03:57 AM 38.6°F3.7°C 34.8°F1.6°C 86% 6.9 mph S11.1 kmh S 13.8 mph22.2 kmh 29.66 in1004.4 mb - 0.00 in0.0 mm 0.00 in0.0 mm
03:56 AM 38.6°F3.7°C 34.8°F1.6°C 86% 9.2 mph SSW14.8 kmh SSW 17.3 mph27.8 kmh 29.65 in1004.1 mb - 0.00 in0.0 mm 0.00 in0.0 mm
03:55 AM 38.6°F3.7°C 34.8°F1.6°C 86% 8.1 mph SSW13.0 kmh SSW 20.7 mph33.3 kmh 29.65 in1004.1 mb - 0.00 in0.0 mm 0.00 in0.0 mm
03:54 AM 38.7°F3.7°C 34.9°F1.6°C 86% 9.2 mph SSW14.8 kmh SSW 13.8 mph22.2 kmh 29.65 in1004.1 mb - 0.00 in0.0 mm 0.00 in0.0 mm
03:53 AM 38.7°F3.7°C 34.9°F1.6°C 86% 9.2 mph SSW14.8 kmh SSW 19.6 mph31.5 kmh 29.65 in1004.1 mb - 0.00 in0.0 mm 0.00 in0.0 mm
03:52 AM 38.8°F3.8°C 34.9°F1.6°C 86% 12.7 mph SW20.4 kmh SW 15.0 mph24.1 kmh 29.66 in1004.4 mb - 0.00 in0.0 mm 0.00 in0.0 mm
03:51 AM 38.7°F3.7°C 34.9°F1.6°C 86% 9.2 mph SW14.8 kmh SW 19.6 mph31.5 kmh 29.66 in1004.4 mb - 0.00 in0.0 mm 0.00 in0.0 mm
03:50 AM 38.8°F3.8°C 34.9°F1.6°C 86% 6.9 mph S11.1 kmh S 12.7 mph20.4 kmh 29.66 in1004.4 mb - 0.00 in0.0 mm 0.00 in0.0 mm
03:49 AM 38.8°F3.8°C 35.0°F1.7°C 86% 5.8 mph SSW9.3 kmh SSW 8.1 mph13.0 kmh 29.66 in1004.4 mb - 0.00 in0.0 mm 0.00 in0.0 mm
03:48 AM 38.8°F3.8°C 35.0°F1.7°C 86% 10.4 mph SSW16.7 kmh SSW 17.3 mph27.8 kmh 29.66 in1004.4 mb - 0.00 in0.0 mm 0.00 in0.0 mm
03:47 AM 38.8°F3.8°C 35.0°F1.7°C 86% 8.1 mph SW13.0 kmh SW 17.3 mph27.8 kmh 29.66 in1004.4 mb - 0.00 in0.0 mm 0.00 in0.0 mm
03:46 AM 38.8°F3.8°C 35.0°F1.7°C 86% 8.1 mph SSW13.0 kmh SSW 12.7 mph20.4 kmh 29.66 in1004.4 mb - 0.00 in0.0 mm 0.00 in0.0 mm
03:45 AM 38.8°F3.8°C 35.0°F1.7°C 86% 8.1 mph SSW13.0 kmh SSW 17.3 mph27.8 kmh 29.66 in1004.4 mb - 0.00 in0.0 mm 0.00 in0.0 mm
03:44 AM 38.8°F3.8°C 34.7°F1.5°C 85% 10.4 mph SSW16.7 kmh SSW 18.4 mph29.6 kmh 29.66 in1004.4 mb - 0.00 in0.0 mm 0.00 in0.0 mm
03:43 AM 38.8°F3.8°C 34.7°F1.5°C 85% 10.4 mph SSW16.7 kmh SSW 15.0 mph24.1 kmh 29.66 in1004.4 mb - 0.00 in0.0 mm 0.00 in0.0 mm
03:42 AM 38.8°F3.8°C 34.7°F1.5°C 85% 9.2 mph SW14.8 kmh SW 13.8 mph22.2 kmh 29.66 in1004.4 mb - 0.00 in0.0 mm 0.00 in0.0 mm
03:41 AM 38.9°F3.8°C 35.1°F1.7°C 86% 6.9 mph SW11.1 kmh SW 15.0 mph24.1 kmh 29.66 in1004.4 mb - 0.00 in0.0 mm 0.00 in0.0 mm
03:40 AM 38.8°F3.8°C 34.7°F1.5°C 85% 10.4 mph SW16.7 kmh SW 17.3 mph27.8 kmh 29.66 in1004.4 mb - 0.00 in0.0 mm 0.00 in0.0 mm
03:39 AM 38.8°F3.8°C 34.7°F1.5°C 85% 8.1 mph SW13.0 kmh SW 12.7 mph20.4 kmh 29.66 in1004.4 mb - 0.00 in0.0 mm 0.00 in0.0 mm
03:38 AM 38.8°F3.8°C 34.7°F1.5°C 85% 9.2 mph SW14.8 kmh SW 11.5 mph18.5 kmh 29.66 in1004.4 mb - 0.00 in0.0 mm 0.00 in0.0 mm
03:37 AM 38.8°F3.8°C 34.7°F1.5°C 85% 9.2 mph SSW14.8 kmh SSW 12.7 mph20.4 kmh 29.66 in1004.4 mb - 0.00 in0.0 mm 0.00 in0.0 mm
03:36 AM 38.8°F3.8°C 34.7°F1.5°C 85% 8.1 mph SSW13.0 kmh SSW 19.6 mph31.5 kmh 29.66 in1004.4 mb - 0.00 in0.0 mm 0.00 in0.0 mm
03:35 AM 38.8°F3.8°C 34.7°F1.5°C 85% 5.8 mph SSE9.3 kmh SSE 13.8 mph22.2 kmh 29.67 in1004.7 mb - 0.00 in0.0 mm 0.00 in0.0 mm
03:34 AM 38.8°F3.8°C 34.7°F1.5°C 85% 9.2 mph SSW14.8 kmh SSW 15.0 mph24.1 kmh 29.67 in1004.7 mb - 0.00 in0.0 mm 0.00 in0.0 mm
03:33 AM 38.8°F3.8°C 34.7°F1.5°C 85% 10.4 mph S16.7 kmh S 16.1 mph25.9 kmh 29.67 in1004.7 mb - 0.00 in0.0 mm 0.00 in0.0 mm
03:32 AM 38.8°F3.8°C 34.7°F1.5°C 85% 8.1 mph SW13.0 kmh SW 19.6 mph31.5 kmh 29.67 in1004.7 mb - 0.00 in0.0 mm 0.00 in0.0 mm
03:31 AM 38.8°F3.8°C 34.7°F1.5°C 85% 9.2 mph SW14.8 kmh SW 16.1 mph25.9 kmh 29.67 in1004.7 mb - 0.00 in0.0 mm 0.00 in0.0 mm
03:30 AM 38.8°F3.8°C 34.7°F1.5°C 85% 8.1 mph SSW13.0 kmh SSW 12.7 mph20.4 kmh 29.67 in1004.7 mb - 0.00 in0.0 mm 0.00 in0.0 mm
03:29 AM 38.8°F3.8°C 34.7°F1.5°C 85% 6.9 mph SSW11.1 kmh SSW 15.0 mph24.1 kmh 29.67 in1004.7 mb - 0.00 in0.0 mm 0.00 in0.0 mm
03:28 AM 38.8°F3.8°C 34.7°F1.5°C 85% 10.4 mph SSW16.7 kmh SSW 15.0 mph24.1 kmh 29.67 in1004.7 mb - 0.00 in0.0 mm 0.00 in0.0 mm
03:27 AM 38.8°F3.8°C 34.7°F1.5°C 85% 4.6 mph SW7.4 kmh SW 12.7 mph20.4 kmh 29.67 in1004.7 mb - 0.00 in0.0 mm 0.00 in0.0 mm
03:26 AM 38.8°F3.8°C 34.7°F1.5°C 85% 6.9 mph WSW11.1 kmh WSW 11.5 mph18.5 kmh 29.67 in1004.7 mb - 0.00 in0.0 mm 0.00 in0.0 mm
03:25 AM 38.8°F3.8°C 34.7°F1.5°C 85% 9.2 mph S14.8 kmh S 12.7 mph20.4 kmh 29.67 in1004.7 mb - 0.00 in0.0 mm 0.00 in0.0 mm
03:24 AM 38.8°F3.8°C 34.7°F1.5°C 85% 8.1 mph SW13.0 kmh SW 20.7 mph33.3 kmh 29.67 in1004.7 mb - 0.00 in0.0 mm 0.00 in0.0 mm
03:23 AM 38.8°F3.8°C 34.7°F1.5°C 85% 6.9 mph SSW11.1 kmh SSW 11.5 mph18.5 kmh 29.67 in1004.7 mb - 0.00 in0.0 mm 0.00 in0.0 mm
03:22 AM 38.8°F3.8°C 34.7°F1.5°C 85% 8.1 mph S13.0 kmh S 15.0 mph24.1 kmh 29.67 in1004.7 mb - 0.00 in0.0 mm 0.00 in0.0 mm
03:21 AM 38.8°F3.8°C 34.7°F1.5°C 85% 6.9 mph S11.1 kmh S 13.8 mph22.2 kmh 29.67 in1004.7 mb - 0.00 in0.0 mm 0.00 in0.0 mm
03:20 AM 38.8°F3.8°C 34.7°F1.5°C 85% 10.4 mph SSW16.7 kmh SSW 12.7 mph20.4 kmh 29.67 in1004.7 mb - 0.00 in0.0 mm 0.00 in0.0 mm
03:19 AM 38.8°F3.8°C 34.7°F1.5°C 85% 8.1 mph S13.0 kmh S 23.0 mph37.0 kmh 29.68 in1005.1 mb - 0.00 in0.0 mm 0.00 in0.0 mm
03:18 AM 38.8°F3.8°C 34.7°F1.5°C 85% 8.1 mph SW13.0 kmh SW 6.9 mph11.1 kmh 29.67 in1004.7 mb - 0.00 in0.0 mm 0.00 in0.0 mm
03:17 AM 38.8°F3.8°C 34.7°F1.5°C 85% 5.8 mph SW9.3 kmh SW 18.4 mph29.6 kmh 29.67 in1004.7 mb - 0.00 in0.0 mm 0.00 in0.0 mm
03:16 AM 38.8°F3.8°C 34.7°F1.5°C 85% 5.8 mph SW9.3 kmh SW 6.9 mph11.1 kmh 29.68 in1005.1 mb - 0.00 in0.0 mm 0.00 in0.0 mm
03:15 AM 38.8°F3.8°C 34.7°F1.5°C 85% 9.2 mph SW14.8 kmh SW 15.0 mph24.1 kmh 29.68 in1005.1 mb - 0.00 in0.0 mm 0.00 in0.0 mm
03:14 AM 38.8°F3.8°C 34.7°F1.5°C 85% 6.9 mph SW11.1 kmh SW 19.6 mph31.5 kmh 29.68 in1005.1 mb - 0.00 in0.0 mm 0.00 in0.0 mm
03:13 AM 38.8°F3.8°C 34.7°F1.5°C 85% 9.2 mph SW14.8 kmh SW 11.5 mph18.5 kmh 29.68 in1005.1 mb - 0.00 in0.0 mm 0.00 in0.0 mm
03:12 AM 38.8°F3.8°C 34.7°F1.5°C 85% 8.1 mph SSW13.0 kmh SSW 15.0 mph24.1 kmh 29.68 in1005.1 mb - 0.00 in0.0 mm 0.00 in0.0 mm
03:11 AM 38.8°F3.8°C 34.7°F1.5°C 85% 5.8 mph SSW9.3 kmh SSW 11.5 mph18.5 kmh 29.68 in1005.1 mb - 0.00 in0.0 mm 0.00 in0.0 mm
03:10 AM 38.8°F3.8°C 34.7°F1.5°C 85% 8.1 mph SSW13.0 kmh SSW 12.7 mph20.4 kmh 29.68 in1005.1 mb - 0.00 in0.0 mm 0.00 in0.0 mm
03:09 AM 38.8°F3.8°C 34.7°F1.5°C 85% 11.5 mph SSW18.5 kmh SSW 18.4 mph29.6 kmh 29.68 in1005.1 mb - 0.00 in0.0 mm 0.00 in0.0 mm
03:08 AM 38.8°F3.8°C 34.7°F1.5°C 85% 9.2 mph SSW14.8 kmh SSW 23.0 mph37.0 kmh 29.68 in1005.1 mb - 0.00 in0.0 mm 0.00 in0.0 mm
03:07 AM 38.7°F3.7°C 34.6°F1.4°C 85% 8.1 mph SSW13.0 kmh SSW 11.5 mph18.5 kmh 29.68 in1005.1 mb - 0.00 in0.0 mm 0.00 in0.0 mm
03:06 AM 38.7°F3.7°C 34.6°F1.4°C 85% 6.9 mph SSW11.1 kmh SSW 18.4 mph29.6 kmh 29.68 in1005.1 mb - 0.00 in0.0 mm 0.00 in0.0 mm
03:05 AM 38.7°F3.7°C 34.6°F1.4°C 85% 6.9 mph SSW11.1 kmh SSW 11.5 mph18.5 kmh 29.68 in1005.1 mb - 0.00 in0.0 mm 0.00 in0.0 mm
03:04 AM 38.7°F3.7°C 34.6°F1.4°C 85% 9.2 mph SW14.8 kmh SW 15.0 mph24.1 kmh 29.68 in1005.1 mb - 0.00 in0.0 mm 0.00 in0.0 mm
03:03 AM 38.7°F3.7°C 34.6°F1.4°C 85% 9.2 mph SSW14.8 kmh SSW 16.1 mph25.9 kmh 29.69 in1005.4 mb - 0.00 in0.0 mm 0.00 in0.0 mm
03:02 AM 38.7°F3.7°C 34.6°F1.4°C 85% 9.2 mph SW14.8 kmh SW 19.6 mph31.5 kmh 29.69 in1005.4 mb - 0.00 in0.0 mm 0.00 in0.0 mm
03:01 AM 38.6°F3.7°C 34.8°F1.6°C 86% 10.4 mph SSW16.7 kmh SSW 18.4 mph29.6 kmh 29.69 in1005.4 mb - 0.00 in0.0 mm 0.00 in0.0 mm
03:00 AM 38.6°F3.7°C 34.8°F1.6°C 86% 6.9 mph SSW11.1 kmh SSW 17.3 mph27.8 kmh 29.69 in1005.4 mb - 0.00 in0.0 mm 0.00 in0.0 mm
02:59 AM 38.6°F3.7°C 34.8°F1.6°C 86% 8.1 mph SSW13.0 kmh SSW 12.7 mph20.4 kmh 29.69 in1005.4 mb - 0.00 in0.0 mm 0.00 in0.0 mm
02:58 AM 38.6°F3.7°C 34.8°F1.6°C 86% 6.9 mph S11.1 kmh S 12.7 mph20.4 kmh 29.69 in1005.4 mb - 0.00 in0.0 mm 0.00 in0.0 mm
02:57 AM 38.6°F3.7°C 34.8°F1.6°C 86% 6.9 mph SSW11.1 kmh SSW 11.5 mph18.5 kmh 29.69 in1005.4 mb - 0.00 in0.0 mm 0.00 in0.0 mm
02:56 AM 38.6°F3.7°C 34.8°F1.6°C 86% 8.1 mph SSW13.0 kmh SSW 16.1 mph25.9 kmh 29.70 in1005.8 mb - 0.00 in0.0 mm 0.00 in0.0 mm
02:55 AM 38.6°F3.7°C 34.8°F1.6°C 86% 8.1 mph S13.0 kmh S 12.7 mph20.4 kmh 29.70 in1005.8 mb - 0.00 in0.0 mm 0.00 in0.0 mm
02:54 AM 38.6°F3.7°C 34.7°F1.5°C 86% 8.1 mph SW13.0 kmh SW 12.7 mph20.4 kmh 29.70 in1005.8 mb - 0.00 in0.0 mm 0.00 in0.0 mm
02:53 AM 38.5°F3.6°C 34.7°F1.5°C 86% 9.2 mph S14.8 kmh S 13.8 mph22.2 kmh 29.70 in1005.8 mb - 0.00 in0.0 mm 0.00 in0.0 mm
02:52 AM 38.6°F3.7°C 34.7°F1.5°C 86% 8.1 mph SSW13.0 kmh SSW 18.4 mph29.6 kmh 29.70 in1005.8 mb - 0.00 in0.0 mm 0.00 in0.0 mm
02:51 AM 38.6°F3.7°C 34.7°F1.5°C 86% 6.9 mph SSW11.1 kmh SSW 12.7 mph20.4 kmh 29.70 in1005.8 mb - 0.00 in0.0 mm 0.00 in0.0 mm
02:50 AM 38.5°F3.6°C 34.7°F1.5°C 86% 8.1 mph SW13.0 kmh SW 11.5 mph18.5 kmh 29.70 in1005.8 mb - 0.00 in0.0 mm 0.00 in0.0 mm
02:49 AM 38.5°F3.6°C 34.7°F1.5°C 86% 9.2 mph S14.8 kmh S 15.0 mph24.1 kmh 29.70 in1005.8 mb - 0.00 in0.0 mm 0.00 in0.0 mm
02:48 AM 38.5°F3.6°C 34.7°F1.5°C 86% 6.9 mph SSW11.1 kmh SSW 19.6 mph31.5 kmh 29.70 in1005.8 mb - 0.00 in0.0 mm 0.00 in0.0 mm
02:47 AM 38.5°F3.6°C 34.7°F1.5°C 86% 8.1 mph SSW13.0 kmh SSW 19.6 mph31.5 kmh 29.70 in1005.8 mb - 0.00 in0.0 mm 0.00 in0.0 mm
02:46 AM 38.5°F3.6°C 34.7°F1.5°C 86% 8.1 mph SSW13.0 kmh SSW 15.0 mph24.1 kmh 29.70 in1005.8 mb - 0.00 in0.0 mm 0.00 in0.0 mm
02:45 AM 38.5°F3.6°C 34.7°F1.5°C 86% 9.2 mph SSW14.8 kmh SSW 17.3 mph27.8 kmh 29.70 in1005.8 mb - 0.00 in0.0 mm 0.00 in0.0 mm
02:44 AM 38.5°F3.6°C 34.7°F1.5°C 86% 10.4 mph SW16.7 kmh SW 16.1 mph25.9 kmh 29.70 in1005.8 mb - 0.00 in0.0 mm 0.00 in0.0 mm
02:43 AM 38.5°F3.6°C 34.7°F1.5°C 86% 8.1 mph S13.0 kmh S 13.8 mph22.2 kmh 29.70 in1005.8 mb - 0.00 in0.0 mm 0.00 in0.0 mm
02:42 AM 38.5°F3.6°C 34.7°F1.5°C 86% 9.2 mph SW14.8 kmh SW 17.3 mph27.8 kmh 29.70 in1005.8 mb - 0.00 in0.0 mm 0.00 in0.0 mm
02:41 AM 38.5°F3.6°C 34.7°F1.5°C 86% 8.1 mph SSW13.0 kmh SSW 11.5 mph18.5 kmh 29.70 in1005.8 mb - 0.00 in0.0 mm 0.00 in0.0 mm
02:40 AM 38.4°F3.6°C 34.6°F1.4°C 86% 8.1 mph SSW13.0 kmh SSW 17.3 mph27.8 kmh 29.70 in1005.8 mb - 0.00 in0.0 mm 0.00 in0.0 mm
02:39 AM 38.5°F3.6°C 34.7°F1.5°C 86% 5.8 mph SW9.3 kmh SW 11.5 mph18.5 kmh 29.70 in1005.8 mb - 0.00 in0.0 mm 0.00 in0.0 mm
02:38 AM 38.5°F3.6°C 34.7°F1.5°C 86% 6.9 mph SW11.1 kmh SW 10.4 mph16.7 kmh 29.70 in1005.8 mb - 0.00 in0.0 mm 0.00 in0.0 mm
02:37 AM 38.4°F3.6°C 34.6°F1.4°C 86% 6.9 mph S11.1 kmh S 13.8 mph22.2 kmh 29.71 in1006.1 mb - 0.00 in0.0 mm 0.00 in0.0 mm
02:36 AM 38.5°F3.6°C 34.7°F1.5°C 86% 8.1 mph SSW13.0 kmh SSW 13.8 mph22.2 kmh 29.71 in1006.1 mb - 0.00 in0.0 mm 0.00 in0.0 mm
02:35 AM 38.4°F3.6°C 34.6°F1.4°C 86% 10.4 mph SW16.7 kmh SW 19.6 mph31.5 kmh 29.71 in1006.1 mb - 0.00 in0.0 mm 0.00 in0.0 mm
02:34 AM 38.5°F3.6°C 35.0°F1.7°C 87% 8.1 mph SSW13.0 kmh SSW 13.8 mph22.2 kmh 29.71 in1006.1 mb - 0.00 in0.0 mm 0.00 in0.0 mm
02:33 AM 38.5°F3.6°C 34.9°F1.6°C 87% 6.9 mph SW11.1 kmh SW 13.8 mph22.2 kmh 29.71 in1006.1 mb - 0.00 in0.0 mm 0.00 in0.0 mm
02:32 AM 38.5°F3.6°C 34.7°F1.5°C 86% 6.9 mph SW11.1 kmh SW 11.5 mph18.5 kmh 29.71 in1006.1 mb - 0.00 in0.0 mm 0.00 in0.0 mm
02:31 AM 38.5°F3.6°C 34.7°F1.5°C 86% 9.2 mph SSW14.8 kmh SSW 11.5 mph18.5 kmh 29.71 in1006.1 mb - 0.00 in0.0 mm 0.00 in0.0 mm
02:30 AM 38.5°F3.6°C 34.7°F1.5°C 86% 8.1 mph SSW13.0 kmh SSW 17.3 mph27.8 kmh 29.71 in1006.1 mb - 0.00 in0.0 mm 0.00 in0.0 mm
02:29 AM 38.5°F3.6°C 34.7°F1.5°C 86% 9.2 mph SSW14.8 kmh SSW 10.4 mph16.7 kmh 29.71 in1006.1 mb - 0.00 in0.0 mm 0.00 in0.0 mm
02:28 AM 38.5°F3.6°C 34.7°F1.5°C 86% 9.2 mph SW14.8 kmh SW 19.6 mph31.5 kmh 29.71 in1006.1 mb - 0.00 in0.0 mm 0.00 in0.0 mm
02:27 AM 38.4°F3.6°C 34.9°F1.6°C 87% 9.2 mph SW14.8 kmh SW 10.4 mph16.7 kmh 29.71 in1006.1 mb - 0.00 in0.0 mm 0.00 in0.0 mm
02:26 AM 38.4°F3.6°C 34.6°F1.4°C 86% 8.1 mph SSW13.0 kmh SSW 16.1 mph25.9 kmh 29.71 in1006.1 mb - 0.00 in0.0 mm 0.00 in0.0 mm
02:25 AM 38.5°F3.6°C 34.7°F1.5°C 86% 8.1 mph SSW13.0 kmh SSW 11.5 mph18.5 kmh 29.71 in1006.1 mb - 0.00 in0.0 mm 0.00 in0.0 mm
02:24 AM 38.5°F3.6°C 35.0°F1.7°C 87% 5.8 mph SSW9.3 kmh SSW 11.5 mph18.5 kmh 29.71 in1006.1 mb - 0.00 in0.0 mm 0.00 in0.0 mm
02:23 AM 38.5°F3.6°C 34.7°F1.5°C 86% 6.9 mph SSW11.1 kmh SSW 13.8 mph22.2 kmh 29.71 in1006.1 mb - 0.00 in0.0 mm 0.00 in0.0 mm
02:22 AM 38.5°F3.6°C 35.0°F1.7°C 87% 10.4 mph SSW16.7 kmh SSW 23.0 mph37.0 kmh 29.72 in1006.4 mb - 0.00 in0.0 mm 0.00 in0.0 mm
02:21 AM 38.5°F3.6°C 34.7°F1.5°C 86% 6.9 mph SSW11.1 kmh SSW 10.4 mph16.7 kmh 29.71 in1006.1 mb - 0.00 in0.0 mm 0.00 in0.0 mm
02:20 AM 38.4°F3.6°C 34.6°F1.4°C 86% 6.9 mph SW11.1 kmh SW 10.4 mph16.7 kmh 29.71 in1006.1 mb - 0.00 in0.0 mm 0.00 in0.0 mm
02:19 AM 38.5°F3.6°C 34.7°F1.5°C 86% 11.5 mph SSW18.5 kmh SSW 17.3 mph27.8 kmh 29.72 in1006.4 mb - 0.00 in0.0 mm 0.00 in0.0 mm
02:18 AM 38.5°F3.6°C 34.7°F1.5°C 86% 10.4 mph SW16.7 kmh SW 18.4 mph29.6 kmh 29.72 in1006.4 mb - 0.00 in0.0 mm 0.00 in0.0 mm
02:17 AM 38.5°F3.6°C 34.7°F1.5°C 86% 9.2 mph SW14.8 kmh SW 15.0 mph24.1 kmh 29.72 in1006.4 mb - 0.00 in0.0 mm 0.00 in0.0 mm
02:16 AM 38.4°F3.6°C 34.6°F1.4°C 86% 8.1 mph SW13.0 kmh SW 13.8 mph22.2 kmh 29.72 in1006.4 mb - 0.00 in0.0 mm 0.00 in0.0 mm
02:15 AM 38.5°F3.6°C 34.7°F1.5°C 86% 11.5 mph SW18.5 kmh SW 19.6 mph31.5 kmh 29.72 in1006.4 mb - 0.00 in0.0 mm 0.00 in0.0 mm
02:14 AM 38.4°F3.6°C 34.9°F1.6°C 87% 9.2 mph S14.8 kmh S 16.1 mph25.9 kmh 29.72 in1006.4 mb - 0.00 in0.0 mm 0.00 in0.0 mm
02:13 AM 38.5°F3.6°C 35.0°F1.7°C 87% 6.9 mph S11.1 kmh S 11.5 mph18.5 kmh 29.72 in1006.4 mb - 0.00 in0.0 mm 0.00 in0.0 mm
02:12 AM 38.5°F3.6°C 34.7°F1.5°C 86% 9.2 mph SW14.8 kmh SW 15.0 mph24.1 kmh 29.72 in1006.4 mb - 0.00 in0.0 mm 0.00 in0.0 mm
02:11 AM 38.5°F3.6°C 35.0°F1.7°C 87% 9.2 mph S14.8 kmh S 12.7 mph20.4 kmh 29.72 in1006.4 mb - 0.00 in0.0 mm 0.00 in0.0 mm
02:10 AM 38.5°F3.6°C 35.0°F1.7°C 87% 8.1 mph SSW13.0 kmh SSW 15.0 mph24.1 kmh 29.72 in1006.4 mb - 0.00 in0.0 mm 0.00 in0.0 mm
02:09 AM 38.5°F3.6°C 35.0°F1.7°C 87% 6.9 mph SW11.1 kmh SW 12.7 mph20.4 kmh 29.72 in1006.4 mb - 0.00 in0.0 mm 0.00 in0.0 mm
02:08 AM 38.5°F3.6°C 34.7°F1.5°C 86% 9.2 mph SSW14.8 kmh SSW 16.1 mph25.9 kmh 29.72 in1006.4 mb - 0.00 in0.0 mm 0.00 in0.0 mm
02:07 AM 38.6°F3.7°C 34.7°F1.5°C 86% 10.4 mph SSW16.7 kmh SSW 19.6 mph31.5 kmh 29.72 in1006.4 mb - 0.00 in0.0 mm 0.00 in0.0 mm
02:06 AM 38.6°F3.7°C 34.7°F1.5°C 86% 8.1 mph SSW13.0 kmh SSW 15.0 mph24.1 kmh 29.72 in1006.4 mb - 0.00 in0.0 mm 0.00 in0.0 mm
02:05 AM 38.5°F3.6°C 34.7°F1.5°C 86% 10.4 mph SSW16.7 kmh SSW 11.5 mph18.5 kmh 29.72 in1006.4 mb - 0.00 in0.0 mm 0.00 in0.0 mm
02:04 AM 38.6°F3.7°C 35.0°F1.7°C 87% 11.5 mph SSW18.5 kmh SSW 19.6 mph31.5 kmh 29.72 in1006.4 mb - 0.00 in0.0 mm 0.00 in0.0 mm
02:03 AM 38.6°F3.7°C 34.8°F1.6°C 86% 9.2 mph SW14.8 kmh SW 15.0 mph24.1 kmh 29.72 in1006.4 mb - 0.00 in0.0 mm 0.00 in0.0 mm
02:02 AM 38.6°F3.7°C 34.8°F1.6°C 86% 10.4 mph SSW16.7 kmh SSW 20.7 mph33.3 kmh 29.73 in1006.8 mb - 0.00 in0.0 mm 0.00 in0.0 mm
02:01 AM 38.6°F3.7°C 34.8°F1.6°C 86% 11.5 mph SW18.5 kmh SW 20.7 mph33.3 kmh 29.72 in1006.4 mb - 0.00 in0.0 mm 0.00 in0.0 mm
02:00 AM 38.6°F3.7°C 35.1°F1.7°C 87% 6.9 mph SW11.1 kmh SW 19.6 mph31.5 kmh 29.73 in1006.8 mb - 0.00 in0.0 mm 0.00 in0.0 mm
01:59 AM 38.6°F3.7°C 34.8°F1.6°C 86% 8.1 mph SW13.0 kmh SW 11.5 mph18.5 kmh 29.73 in1006.8 mb - 0.00 in0.0 mm 0.00 in0.0 mm
01:58 AM 38.6°F3.7°C 34.8°F1.6°C 86% 9.2 mph SW14.8 kmh SW 19.6 mph31.5 kmh 29.73 in1006.8 mb - 0.00 in0.0 mm 0.00 in0.0 mm
01:57 AM 38.6°F3.7°C 35.1°F1.7°C 87% 11.5 mph SSW18.5 kmh SSW 19.6 mph31.5 kmh 29.73 in1006.8 mb - 0.00 in0.0 mm 0.00 in0.0 mm
01:56 AM 38.6°F3.7°C 34.8°F1.6°C 86% 10.4 mph SSW16.7 kmh SSW 17.3 mph27.8 kmh 29.73 in1006.8 mb - 0.00 in0.0 mm 0.00 in0.0 mm
01:55 AM 38.6°F3.7°C 35.0°F1.7°C 87% 9.2 mph SSW14.8 kmh SSW 16.1 mph25.9 kmh 29.73 in1006.8 mb - 0.00 in0.0 mm 0.00 in0.0 mm
01:54 AM 38.5°F3.6°C 35.0°F1.7°C 87% 9.2 mph SSW14.8 kmh SSW 15.0 mph24.1 kmh 29.73 in1006.8 mb - 0.00 in0.0 mm 0.00 in0.0 mm
01:53 AM 38.5°F3.6°C 35.0°F1.7°C 87% 6.9 mph S11.1 kmh S 12.7 mph20.4 kmh 29.73 in1006.8 mb - 0.00 in0.0 mm 0.00 in0.0 mm
01:52 AM 38.5°F3.6°C 35.0°F1.7°C 87% 8.1 mph S13.0 kmh S 15.0 mph24.1 kmh 29.73 in1006.8 mb - 0.00 in0.0 mm 0.00 in0.0 mm
01:51 AM 38.5°F3.6°C 35.0°F1.7°C 87% 6.9 mph SSW11.1 kmh SSW 11.5 mph18.5 kmh 29.73 in1006.8 mb - 0.00 in0.0 mm 0.00 in0.0 mm
01:50 AM 38.5°F3.6°C 35.0°F1.7°C 87% 6.9 mph SW11.1 kmh SW 11.5 mph18.5 kmh 29.73 in1006.8 mb - 0.00 in0.0 mm 0.00 in0.0 mm
01:49 AM 38.5°F3.6°C 35.0°F1.7°C 87% 11.5 mph SSW18.5 kmh SSW 15.0 mph24.1 kmh 29.73 in1006.8 mb - 0.00 in0.0 mm 0.00 in0.0 mm
01:48 AM 38.4°F3.6°C 34.9°F1.6°C 87% 10.4 mph SSW16.7 kmh SSW 19.6 mph31.5 kmh 29.73 in1006.8 mb - 0.00 in0.0 mm 0.00 in0.0 mm
01:47 AM 38.4°F3.6°C 34.9°F1.6°C 87% 8.1 mph SW13.0 kmh SW 15.0 mph24.1 kmh 29.73 in1006.8 mb - 0.00 in0.0 mm 0.00 in0.0 mm
01:46 AM 38.4°F3.6°C 34.9°F1.6°C 87% 8.1 mph SW13.0 kmh SW 11.5 mph18.5 kmh 29.73 in1006.8 mb - 0.00 in0.0 mm 0.00 in0.0 mm
01:45 AM 38.4°F3.6°C 34.9°F1.6°C 87% 8.1 mph SW13.0 kmh SW 19.6 mph31.5 kmh 29.73 in1006.8 mb - 0.00 in0.0 mm 0.00 in0.0 mm
01:44 AM 38.4°F3.6°C 34.9°F1.6°C 87% 5.8 mph SSW9.3 kmh SSW 9.2 mph14.8 kmh 29.73 in1006.8 mb - 0.00 in0.0 mm 0.00 in0.0 mm
01:43 AM 38.4°F3.6°C 34.9°F1.6°C 87% 6.9 mph SSW11.1 kmh SSW 6.9 mph11.1 kmh 29.73 in1006.8 mb - 0.00 in0.0 mm 0.00 in0.0 mm
01:42 AM 38.4°F3.6°C 34.9°F1.6°C 87% 12.7 mph SW20.4 kmh SW 19.6 mph31.5 kmh 29.73 in1006.8 mb - 0.00 in0.0 mm 0.00 in0.0 mm
01:41 AM 38.4°F3.6°C 34.9°F1.6°C 87% 12.7 mph SW20.4 kmh SW 20.7 mph33.3 kmh 29.74 in1007.1 mb - 0.00 in0.0 mm 0.00 in0.0 mm
01:40 AM 38.4°F3.6°C 34.9°F1.6°C 87% 10.4 mph SW16.7 kmh SW 24.2 mph38.9 kmh 29.74 in1007.1 mb - 0.00 in0.0 mm 0.00 in0.0 mm
01:39 AM 38.5°F3.6°C 35.0°F1.7°C 87% 8.1 mph SW13.0 kmh SW 15.0 mph24.1 kmh 29.73 in1006.8 mb - 0.00 in0.0 mm 0.00 in0.0 mm
01:38 AM 38.5°F3.6°C 35.0°F1.7°C 87% 9.2 mph SW14.8 kmh SW 13.8 mph22.2 kmh 29.74 in1007.1 mb - 0.00 in0.0 mm 0.00 in0.0 mm
01:37 AM 38.6°F3.7°C 35.0°F1.7°C 87% 10.4 mph SW16.7 kmh SW 16.1 mph25.9 kmh 29.74 in1007.1 mb - 0.00 in0.0 mm 0.00 in0.0 mm
01:36 AM 38.6°F3.7°C 35.1°F1.7°C 87% 10.4 mph SW16.7 kmh SW 19.6 mph31.5 kmh 29.74 in1007.1 mb - 0.00 in0.0 mm 0.00 in0.0 mm
01:35 AM 38.6°F3.7°C 34.8°F1.6°C 86% 9.2 mph SW14.8 kmh SW 19.6 mph31.5 kmh 29.74 in1007.1 mb - 0.00 in0.0 mm 0.00 in0.0 mm
01:34 AM 38.6°F3.7°C 34.8°F1.6°C 86% 9.2 mph SSW14.8 kmh SSW 13.8 mph22.2 kmh 29.74 in1007.1 mb - 0.00 in0.0 mm 0.00 in0.0 mm
01:33 AM 38.6°F3.7°C 34.8°F1.6°C 86% 10.4 mph SW16.7 kmh SW 18.4 mph29.6 kmh 29.74 in1007.1 mb - 0.00 in0.0 mm 0.00 in0.0 mm
01:32 AM 38.6°F3.7°C 34.8°F1.6°C 86% 9.2 mph SSW14.8 kmh SSW 12.7 mph20.4 kmh 29.74 in1007.1 mb - 0.00 in0.0 mm 0.00 in0.0 mm
01:31 AM 38.6°F3.7°C 34.8°F1.6°C 86% 5.8 mph SSW9.3 kmh SSW 17.3 mph27.8 kmh 29.74 in1007.1 mb - 0.00 in0.0 mm 0.00 in0.0 mm
01:30 AM 38.6°F3.7°C 34.8°F1.6°C 86% 9.2 mph SSW14.8 kmh SSW 10.4 mph16.7 kmh 29.74 in1007.1 mb - 0.00 in0.0 mm 0.00 in0.0 mm
01:29 AM 38.6°F3.7°C 34.8°F1.6°C 86% 11.5 mph SSW18.5 kmh SSW 21.9 mph35.2 kmh 29.74 in1007.1 mb - 0.00 in0.0 mm 0.00 in0.0 mm
01:28 AM 38.5°F3.6°C 35.0°F1.7°C 87% 10.4 mph SW16.7 kmh SW 19.6 mph31.5 kmh 29.73 in1006.8 mb - 0.00 in0.0 mm 0.00 in0.0 mm
01:27 AM 38.5°F3.6°C 34.7°F1.5°C 86% 8.1 mph SSW13.0 kmh SSW 19.6 mph31.5 kmh 29.74 in1007.1 mb - 0.00 in0.0 mm 0.00 in0.0 mm
01:26 AM 38.5°F3.6°C 34.7°F1.5°C 86% 10.4 mph SW16.7 kmh SW 15.0 mph24.1 kmh 29.73 in1006.8 mb - 0.00 in0.0 mm 0.00 in0.0 mm
01:25 AM 38.5°F3.6°C 34.7°F1.5°C 86% 8.1 mph SW13.0 kmh SW 17.3 mph27.8 kmh 29.73 in1006.8 mb - 0.00 in0.0 mm 0.00 in0.0 mm
01:24 AM 38.5°F3.6°C 34.7°F1.5°C 86% 9.2 mph SSW14.8 kmh SSW 11.5 mph18.5 kmh 29.73 in1006.8 mb - 0.00 in0.0 mm 0.00 in0.0 mm
01:23 AM 38.5°F3.6°C 34.7°F1.5°C 86% 10.4 mph SW16.7 kmh SW 12.7 mph20.4 kmh 29.74 in1007.1 mb - 0.00 in0.0 mm 0.00 in0.0 mm
01:22 AM 38.5°F3.6°C 34.7°F1.5°C 86% 9.2 mph SSW14.8 kmh SSW 17.3 mph27.8 kmh 29.74 in1007.1 mb - 0.00 in0.0 mm 0.00 in0.0 mm
01:21 AM 38.5°F3.6°C 34.7°F1.5°C 86% 9.2 mph S14.8 kmh S 16.1 mph25.9 kmh 29.74 in1007.1 mb - 0.00 in0.0 mm 0.00 in0.0 mm
01:20 AM 38.5°F3.6°C 35.0°F1.7°C 87% 6.9 mph SW11.1 kmh SW 16.1 mph25.9 kmh 29.74 in1007.1 mb - 0.00 in0.0 mm 0.00 in0.0 mm
01:19 AM 38.5°F3.6°C 35.0°F1.7°C 87% 9.2 mph SW14.8 kmh SW 11.5 mph18.5 kmh 29.74 in1007.1 mb - 0.00 in0.0 mm 0.00 in0.0 mm
01:18 AM 38.4°F3.6°C 34.9°F1.6°C 87% 10.4 mph S16.7 kmh S 16.1 mph25.9 kmh 29.74 in1007.1 mb - 0.00 in0.0 mm 0.00 in0.0 mm
01:17 AM 38.4°F3.6°C 34.9°F1.6°C 87% 5.8 mph S9.3 kmh S 17.3 mph27.8 kmh 29.74 in1007.1 mb - 0.00 in0.0 mm 0.00 in0.0 mm
01:16 AM 38.4°F3.6°C 34.9°F1.6°C 87% 5.8 mph SW9.3 kmh SW 6.9 mph11.1 kmh 29.74 in1007.1 mb - 0.00 in0.0 mm 0.00 in0.0 mm
01:15 AM 38.5°F3.6°C 35.0°F1.7°C 87% 9.2 mph SW14.8 kmh SW 13.8 mph22.2 kmh 29.74 in1007.1 mb - 0.00 in0.0 mm 0.00 in0.0 mm
01:14 AM 38.5°F3.6°C 35.0°F1.7°C 87% 8.1 mph SSW13.0 kmh SSW 15.0 mph24.1 kmh 29.74 in1007.1 mb - 0.00 in0.0 mm 0.00 in0.0 mm
01:13 AM 38.5°F3.6°C 35.0°F1.7°C 87% 5.8 mph SSW9.3 kmh SSW 11.5 mph18.5 kmh 29.74 in1007.1 mb - 0.00 in0.0 mm 0.00 in0.0 mm
01:12 AM 38.5°F3.6°C 35.0°F1.7°C 87% 4.6 mph SW7.4 kmh SW 6.9 mph11.1 kmh 29.74 in1007.1 mb - 0.00 in0.0 mm 0.00 in0.0 mm
01:11 AM 38.5°F3.6°C 34.9°F1.6°C 87% 6.9 mph S11.1 kmh S 9.2 mph14.8 kmh 29.74 in1007.1 mb - 0.00 in0.0 mm 0.00 in0.0 mm
01:10 AM 38.5°F3.6°C 35.0°F1.7°C 87% 9.2 mph SSW14.8 kmh SSW 15.0 mph24.1 kmh 29.74 in1007.1 mb - 0.00 in0.0 mm 0.00 in0.0 mm
01:09 AM 38.5°F3.6°C 35.0°F1.7°C 87% 6.9 mph SSW11.1 kmh SSW 13.8 mph22.2 kmh 29.74 in1007.1 mb - 0.00 in0.0 mm 0.00 in0.0 mm
01:08 AM 38.5°F3.6°C 35.0°F1.7°C 87% 9.2 mph SW14.8 kmh SW 13.8 mph22.2 kmh 29.74 in1007.1 mb - 0.00 in0.0 mm 0.00 in0.0 mm
01:07 AM 38.5°F3.6°C 35.0°F1.7°C 87% 6.9 mph SW11.1 kmh SW 11.5 mph18.5 kmh 29.75 in1007.5 mb - 0.00 in0.0 mm 0.00 in0.0 mm
01:06 AM 38.5°F3.6°C 35.0°F1.7°C 87% 6.9 mph SW11.1 kmh SW 9.2 mph14.8 kmh 29.75 in1007.5 mb - 0.00 in0.0 mm 0.00 in0.0 mm
01:05 AM 38.5°F3.6°C 35.0°F1.7°C 87% 8.1 mph SW13.0 kmh SW 16.1 mph25.9 kmh 29.74 in1007.1 mb - 0.00 in0.0 mm 0.00 in0.0 mm
01:04 AM 38.5°F3.6°C 35.0°F1.7°C 87% 5.8 mph SW9.3 kmh SW 11.5 mph18.5 kmh 29.75 in1007.5 mb - 0.00 in0.0 mm 0.00 in0.0 mm
01:03 AM 38.5°F3.6°C 35.0°F1.7°C 87% 4.6 mph SSW7.4 kmh SSW 9.2 mph14.8 kmh 29.75 in1007.5 mb - 0.00 in0.0 mm 0.00 in0.0 mm
01:02 AM 38.5°F3.6°C 34.7°F1.5°C 86% 8.1 mph SW13.0 kmh SW 11.5 mph18.5 kmh 29.75 in1007.5 mb - 0.00 in0.0 mm 0.00 in0.0 mm
01:01 AM 38.5°F3.6°C 34.7°F1.5°C 86% 9.2 mph S14.8 kmh S 16.1 mph25.9 kmh 29.75 in1007.5 mb - 0.00 in0.0 mm 0.00 in0.0 mm
01:00 AM 38.6°F3.7°C 35.0°F1.7°C 87% 9.2 mph SW14.8 kmh SW 16.1 mph25.9 kmh 29.75 in1007.5 mb - 0.00 in0.0 mm 0.00 in0.0 mm
12:59 AM 38.5°F3.6°C 34.7°F1.5°C 86% 8.1 mph SSW13.0 kmh SSW 16.1 mph25.9 kmh 29.75 in1007.5 mb - 0.00 in0.0 mm 0.00 in0.0 mm
12:58 AM 38.6°F3.7°C 34.8°F1.6°C 86% 4.6 mph SSW7.4 kmh SSW 11.5 mph18.5 kmh 29.75 in1007.5 mb - 0.00 in0.0 mm 0.00 in0.0 mm
12:57 AM 38.6°F3.7°C 35.1°F1.7°C 87% 8.1 mph S13.0 kmh S 12.7 mph20.4 kmh 29.75 in1007.5 mb - 0.00 in0.0 mm 0.00 in0.0 mm
12:56 AM 38.6°F3.7°C 34.8°F1.6°C 86% 10.4 mph SSW16.7 kmh SSW 13.8 mph22.2 kmh 29.75 in1007.5 mb - 0.00 in0.0 mm 0.00 in0.0 mm
12:55 AM 38.6°F3.7°C 34.8°F1.6°C 86% 9.2 mph S14.8 kmh S 17.3 mph27.8 kmh 29.75 in1007.5 mb - 0.00 in0.0 mm 0.00 in0.0 mm
12:54 AM 38.6°F3.7°C 34.8°F1.6°C 86% 8.1 mph S13.0 kmh S 15.0 mph24.1 kmh 29.75 in1007.5 mb - 0.00 in0.0 mm 0.00 in0.0 mm
12:53 AM 38.6°F3.7°C 34.8°F1.6°C 86% 9.2 mph SW14.8 kmh SW 11.5 mph18.5 kmh 29.75 in1007.5 mb - 0.00 in0.0 mm 0.00 in0.0 mm
12:52 AM 38.6°F3.7°C 34.8°F1.6°C 86% 10.4 mph SW16.7 kmh SW 20.7 mph33.3 kmh 29.75 in1007.5 mb - 0.00 in0.0 mm 0.00 in0.0 mm
12:51 AM 38.7°F3.7°C 34.8°F1.6°C 86% 8.1 mph SW13.0 kmh SW 12.7 mph20.4 kmh 29.75 in1007.5 mb - 0.00 in0.0 mm 0.00 in0.0 mm
12:50 AM 38.6°F3.7°C 34.5°F1.4°C 85% 8.1 mph SSW13.0 kmh SSW 13.8 mph22.2 kmh 29.75 in1007.5 mb - 0.00 in0.0 mm 0.00 in0.0 mm
12:49 AM 38.7°F3.7°C 34.6°F1.4°C 85% 9.2 mph SSW14.8 kmh SSW 12.7 mph20.4 kmh 29.75 in1007.5 mb - 0.00 in0.0 mm 0.00 in0.0 mm
12:48 AM 38.7°F3.7°C 34.6°F1.4°C 85% 10.4 mph SW16.7 kmh SW 16.1 mph25.9 kmh 29.75 in1007.5 mb - 0.00 in0.0 mm 0.00 in0.0 mm
12:47 AM 38.7°F3.7°C 34.6°F1.4°C 85% 8.1 mph SSW13.0 kmh SSW 15.0 mph24.1 kmh 29.76 in1007.8 mb - 0.00 in0.0 mm 0.00 in0.0 mm
12:46 AM 38.7°F3.7°C 34.6°F1.4°C 85% 6.9 mph SSW11.1 kmh SSW 16.1 mph25.9 kmh 29.76 in1007.8 mb - 0.00 in0.0 mm 0.00 in0.0 mm
12:45 AM 38.8°F3.8°C 34.7°F1.5°C 85% 9.2 mph SSW14.8 kmh SSW 11.5 mph18.5 kmh 29.75 in1007.5 mb - 0.00 in0.0 mm 0.00 in0.0 mm
12:44 AM 38.8°F3.8°C 34.7°F1.5°C 85% 10.4 mph SSW16.7 kmh SSW 18.4 mph29.6 kmh 29.76 in1007.8 mb - 0.00 in0.0 mm 0.00 in0.0 mm
12:43 AM 38.8°F3.8°C 34.7°F1.5°C 85% 9.2 mph SW14.8 kmh SW 11.5 mph18.5 kmh 29.76 in1007.8 mb - 0.00 in0.0 mm 0.00 in0.0 mm
12:42 AM 38.7°F3.7°C 34.6°F1.4°C 85% 8.1 mph SW13.0 kmh SW 16.1 mph25.9 kmh 29.76 in1007.8 mb - 0.00 in0.0 mm 0.00 in0.0 mm
12:41 AM 38.8°F3.8°C 34.7°F1.5°C 85% 6.9 mph SSW11.1 kmh SSW 18.4 mph29.6 kmh 29.76 in1007.8 mb - 0.00 in0.0 mm 0.00 in0.0 mm
12:40 AM 38.8°F3.8°C 34.7°F1.5°C 85% 6.9 mph SW11.1 kmh SW 11.5 mph18.5 kmh 29.76 in1007.8 mb - 0.00 in0.0 mm 0.00 in0.0 mm
12:39 AM 38.7°F3.7°C 34.6°F1.4°C 85% 9.2 mph SW14.8 kmh SW 11.5 mph18.5 kmh 29.76 in1007.8 mb - 0.00 in0.0 mm 0.00 in0.0 mm
12:38 AM 38.7°F3.7°C 34.6°F1.4°C 85% 6.9 mph SW11.1 kmh SW 12.7 mph20.4 kmh 29.76 in1007.8 mb - 0.00 in0.0 mm 0.00 in0.0 mm
12:37 AM 38.7°F3.7°C 34.6°F1.4°C 85% 8.1 mph SW13.0 kmh SW 11.5 mph18.5 kmh 29.76 in1007.8 mb - 0.00 in0.0 mm 0.00 in0.0 mm
12:36 AM 38.8°F3.8°C 34.7°F1.5°C 85% 9.2 mph SW14.8 kmh SW 12.7 mph20.4 kmh 29.76 in1007.8 mb - 0.00 in0.0 mm 0.00 in0.0 mm
12:35 AM 38.7°F3.7°C 34.6°F1.4°C 85% 8.1 mph SSW13.0 kmh SSW 18.4 mph29.6 kmh 29.76 in1007.8 mb - 0.00 in0.0 mm 0.00 in0.0 mm
12:34 AM 38.7°F3.7°C 34.6°F1.4°C 85% 5.8 mph SSW9.3 kmh SSW 12.7 mph20.4 kmh 29.76 in1007.8 mb - 0.00 in0.0 mm 0.00 in0.0 mm
12:33 AM 38.7°F3.7°C 34.6°F1.4°C 85% 6.9 mph SSW11.1 kmh SSW 10.4 mph16.7 kmh 29.76 in1007.8 mb - 0.00 in0.0 mm 0.00 in0.0 mm
12:32 AM 38.8°F3.8°C 34.7°F1.5°C 85% 5.8 mph S9.3 kmh S 12.7 mph20.4 kmh 29.76 in1007.8 mb - 0.00 in0.0 mm 0.00 in0.0 mm
12:31 AM 38.7°F3.7°C 34.6°F1.4°C 85% 8.1 mph SW13.0 kmh SW 8.1 mph13.0 kmh 29.76 in1007.8 mb - 0.00 in0.0 mm 0.00 in0.0 mm
12:30 AM 38.7°F3.7°C 34.6°F1.4°C 85% 10.4 mph SSW16.7 kmh SSW 16.1 mph25.9 kmh 29.76 in1007.8 mb - 0.00 in0.0 mm 0.00 in0.0 mm
12:29 AM 38.7°F3.7°C 34.6°F1.4°C 85% 10.4 mph SW16.7 kmh SW 20.7 mph33.3 kmh 29.76 in1007.8 mb - 0.00 in0.0 mm 0.00 in0.0 mm
12:28 AM 38.8°F3.8°C 34.6°F1.4°C 85% 8.1 mph SW13.0 kmh SW 19.6 mph31.5 kmh 29.76 in1007.8 mb - 0.00 in0.0 mm 0.00 in0.0 mm
12:27 AM 38.8°F3.8°C 34.7°F1.5°C 85% 6.9 mph SSW11.1 kmh SSW 11.5 mph18.5 kmh 29.76 in1007.8 mb - 0.00 in0.0 mm 0.00 in0.0 mm
12:26 AM 38.7°F3.7°C 34.6°F1.4°C 85% 8.1 mph SSW13.0 kmh SSW 10.4 mph16.7 kmh 29.76 in1007.8 mb - 0.00 in0.0 mm 0.00 in0.0 mm
12:25 AM 38.8°F3.8°C 34.7°F1.5°C 85% 9.2 mph SSW14.8 kmh SSW 18.4 mph29.6 kmh 29.76 in1007.8 mb - 0.00 in0.0 mm 0.00 in0.0 mm
12:24 AM 38.8°F3.8°C 34.7°F1.5°C 85% 6.9 mph SSW11.1 kmh SSW 12.7 mph20.4 kmh 29.76 in1007.8 mb - 0.00 in0.0 mm 0.00 in0.0 mm
12:23 AM 38.7°F3.7°C 34.6°F1.4°C 85% 6.9 mph SW11.1 kmh SW 10.4 mph16.7 kmh 29.77 in1008.1 mb - 0.00 in0.0 mm 0.00 in0.0 mm
12:22 AM 38.8°F3.8°C 34.4°F1.3°C 84% 6.9 mph SW11.1 kmh SW 12.7 mph20.4 kmh 29.77 in1008.1 mb - 0.00 in0.0 mm 0.00 in0.0 mm
12:21 AM 38.7°F3.7°C 34.3°F1.3°C 84% 6.9 mph SSW11.1 kmh SSW 8.1 mph13.0 kmh 29.77 in1008.1 mb - 0.00 in0.0 mm 0.00 in0.0 mm
12:20 AM 38.7°F3.7°C 34.3°F1.3°C 84% 8.1 mph S13.0 kmh S 12.7 mph20.4 kmh 29.77 in1008.1 mb - 0.00 in0.0 mm 0.00 in0.0 mm
12:19 AM 38.8°F3.8°C 34.4°F1.3°C 84% 8.1 mph SW13.0 kmh SW 15.0 mph24.1 kmh 29.77 in1008.1 mb - 0.00 in0.0 mm 0.00 in0.0 mm
12:18 AM 38.7°F3.7°C 34.3°F1.3°C 84% 5.8 mph SW9.3 kmh SW 11.5 mph18.5 kmh 29.77 in1008.1 mb - 0.00 in0.0 mm 0.00 in0.0 mm
12:17 AM 38.7°F3.7°C 34.3°F1.3°C 84% 10.4 mph S16.7 kmh S 12.7 mph20.4 kmh 29.77 in1008.1 mb - 0.00 in0.0 mm 0.00 in0.0 mm
12:16 AM 38.6°F3.7°C 34.5°F1.4°C 85% 11.5 mph SW18.5 kmh SW 18.4 mph29.6 kmh 29.77 in1008.1 mb - 0.00 in0.0 mm 0.00 in0.0 mm
12:15 AM 38.7°F3.7°C 34.6°F1.4°C 85% 8.1 mph SW13.0 kmh SW 17.3 mph27.8 kmh 29.77 in1008.1 mb - 0.00 in0.0 mm 0.00 in0.0 mm
12:14 AM 38.6°F3.7°C 34.5°F1.4°C 85% 8.1 mph SW13.0 kmh SW 12.7 mph20.4 kmh 29.77 in1008.1 mb - 0.00 in0.0 mm 0.00 in0.0 mm
12:13 AM 38.6°F3.7°C 34.5°F1.4°C 85% 9.2 mph SSW14.8 kmh SSW 17.3 mph27.8 kmh 29.77 in1008.1 mb - 0.00 in0.0 mm 0.00 in0.0 mm
12:12 AM 38.6°F3.7°C 34.5°F1.4°C 85% 9.2 mph SSW14.8 kmh SSW 16.1 mph25.9 kmh 29.77 in1008.1 mb - 0.00 in0.0 mm 0.00 in0.0 mm
12:11 AM 38.6°F3.7°C 34.5°F1.4°C 85% 5.8 mph SW9.3 kmh SW 16.1 mph25.9 kmh 29.77 in1008.1 mb - 0.00 in0.0 mm 0.00 in0.0 mm
12:10 AM 38.6°F3.7°C 34.5°F1.4°C 85% 9.2 mph SSW14.8 kmh SSW 13.8 mph22.2 kmh 29.77 in1008.1 mb - 0.00 in0.0 mm 0.00 in0.0 mm
12:09 AM 38.6°F3.7°C 34.5°F1.4°C 85% 9.2 mph SSW14.8 kmh SSW 12.7 mph20.4 kmh 29.77 in1008.1 mb - 0.00 in0.0 mm 0.00 in0.0 mm
12:08 AM 38.6°F3.7°C 34.5°F1.4°C 85% 8.1 mph SSW13.0 kmh SSW 19.6 mph31.5 kmh 29.77 in1008.1 mb - 0.00 in0.0 mm 0.00 in0.0 mm
12:07 AM 38.6°F3.7°C 34.5°F1.4°C 85% 8.1 mph SSW13.0 kmh SSW 11.5 mph18.5 kmh 29.77 in1008.1 mb - 0.00 in0.0 mm 0.00 in0.0 mm
12:06 AM 38.6°F3.7°C 34.5°F1.4°C 85% 8.1 mph SW13.0 kmh SW 13.8 mph22.2 kmh 29.77 in1008.1 mb - 0.00 in0.0 mm 0.00 in0.0 mm
12:05 AM 38.5°F3.6°C 34.4°F1.3°C 85% 6.9 mph SSW11.1 kmh SSW 13.8 mph22.2 kmh 29.77 in1008.1 mb - 0.00 in0.0 mm 0.00 in0.0 mm
12:04 AM 38.5°F3.6°C 34.4°F1.3°C 85% 6.9 mph S11.1 kmh S 13.8 mph22.2 kmh 29.77 in1008.1 mb - 0.00 in0.0 mm 0.00 in0.0 mm
12:03 AM 38.6°F3.7°C 34.5°F1.4°C 85% 8.1 mph SSW13.0 kmh SSW 13.8 mph22.2 kmh 29.77 in1008.1 mb - 0.00 in0.0 mm 0.00 in0.0 mm
12:02 AM 38.5°F3.6°C 34.4°F1.3°C 85% 8.1 mph SSW13.0 kmh SSW 13.8 mph22.2 kmh 29.78 in1008.5 mb - 0.00 in0.0 mm 0.00 in0.0 mm
12:01 AM 38.5°F3.6°C 34.4°F1.3°C 85% 10.4 mph SSW16.7 kmh SSW 15.0 mph24.1 kmh 29.78 in1008.5 mb - 0.00 in0.0 mm 0.00 in0.0 mm
12:00 AM 38.5°F3.6°C 34.4°F1.3°C 85% 9.2 mph SW14.8 kmh SW 18.4 mph29.6 kmh 29.78 in1008.5 mb - 0.00 in0.0 mm 0.00 in0.0 mm